createdAt,value
2022-11-12T00:00:41.438Z,6.51
2022-11-12T00:01:41.537Z,6.50
2022-11-12T00:02:41.410Z,6.46
2022-11-12T00:03:41.399Z,6.57
2022-11-12T00:04:41.382Z,6.50
2022-11-12T00:05:41.373Z,6.55
2022-11-12T00:06:41.521Z,6.60
2022-11-12T00:07:41.468Z,6.54
2022-11-12T00:08:41.333Z,6.57
2022-11-12T00:09:41.325Z,6.53
2022-11-12T00:10:41.307Z,6.54
2022-11-12T00:11:41.295Z,6.61
2022-11-12T00:12:41.279Z,6.51
2022-11-12T00:13:41.271Z,6.58
2022-11-12T00:14:41.247Z,6.58
2022-11-12T00:15:41.240Z,6.53
2022-11-12T00:16:41.219Z,6.55
2022-11-12T00:17:41.210Z,6.51
2022-11-12T00:18:41.192Z,6.58
2022-11-12T00:19:41.184Z,6.61
2022-11-12T00:20:41.166Z,6.48
2022-11-12T00:21:41.153Z,6.57
2022-11-12T00:22:41.142Z,6.51
2022-11-12T00:23:41.246Z,6.39
2022-11-12T00:24:41.115Z,6.54
2022-11-12T00:25:41.102Z,6.48
2022-11-12T00:26:41.083Z,6.57
2022-11-12T00:27:41.075Z,6.55
2022-11-12T00:28:41.055Z,6.51
2022-11-12T00:29:41.046Z,6.50
2022-11-12T00:30:41.084Z,6.38
2022-11-12T00:31:41.024Z,6.51
2022-11-12T00:32:41.005Z,6.39
2022-11-12T00:33:40.996Z,6.45
2022-11-12T00:34:40.979Z,6.38
2022-11-12T00:35:41.182Z,6.45
2022-11-12T00:36:40.954Z,6.30
2022-11-12T00:37:40.945Z,6.40
2022-11-12T00:38:40.919Z,6.24
2022-11-12T00:39:41.020Z,6.30
2022-11-12T00:40:40.890Z,6.32
2022-11-12T00:41:40.881Z,6.32
2022-11-12T00:42:40.862Z,6.30
2022-11-12T00:43:40.853Z,6.35
2022-11-12T00:44:40.836Z,6.38
2022-11-12T00:45:40.826Z,6.28
2022-11-12T00:46:40.817Z,6.33
2022-11-12T00:47:40.804Z,6.36
2022-11-12T00:48:40.789Z,6.39
2022-11-12T00:49:40.777Z,6.39
2022-11-12T00:50:40.758Z,6.35
2022-11-12T00:51:40.750Z,6.43
2022-11-12T00:52:40.731Z,6.38
2022-11-12T00:53:40.721Z,6.50
2022-11-12T00:54:40.700Z,6.43
2022-11-12T00:55:40.826Z,6.36
2022-11-12T00:56:40.672Z,6.36
2022-11-12T00:57:40.664Z,6.25
2022-11-12T00:58:40.648Z,6.28
2022-11-12T00:59:40.641Z,6.32
2022-11-12T01:00:40.690Z,6.40
2022-11-12T01:01:40.609Z,6.21
2022-11-12T01:02:45.232Z,6.32
2022-11-12T01:03:41.644Z,6.11
2022-11-12T01:04:40.563Z,6.19
2022-11-12T01:05:40.554Z,6.25
2022-11-12T01:06:40.581Z,6.19
2022-11-12T01:07:40.523Z,6.11
2022-11-12T01:08:40.506Z,6.17
2022-11-12T01:09:40.497Z,6.24
2022-11-12T01:10:40.483Z,6.30
2022-11-12T01:11:40.586Z,6.30
2022-11-12T01:12:40.455Z,6.14
2022-11-12T01:13:44.124Z,6.13
2022-11-12T01:14:40.426Z,6.13
2022-11-12T01:15:40.418Z,6.10
2022-11-12T01:16:40.400Z,6.08
2022-11-12T01:17:40.390Z,6.11
2022-11-12T01:18:40.367Z,6.13
2022-11-12T01:19:40.360Z,6.06
2022-11-12T01:20:40.340Z,6.11
2022-11-12T01:21:40.331Z,6.08
2022-11-12T01:22:40.311Z,6.11
2022-11-12T01:23:40.305Z,5.98
2022-11-12T01:24:40.284Z,6.08
2022-11-12T01:25:40.273Z,6.17
2022-11-12T01:26:40.260Z,6.11
2022-11-12T01:27:40.369Z,5.99
2022-11-12T01:28:40.235Z,6.05
2022-11-12T01:29:40.223Z,6.16
2022-11-12T01:30:40.203Z,6.11
2022-11-12T01:31:40.194Z,6.20
2022-11-12T01:32:40.174Z,6.11
2022-11-12T01:33:40.162Z,6.02
2022-11-12T01:34:40.147Z,6.17
2022-11-12T01:35:40.134Z,6.03
2022-11-12T01:36:40.117Z,6.08
2022-11-12T01:37:40.107Z,6.06
2022-11-12T01:38:40.097Z,6.16
2022-11-12T01:39:40.085Z,6.14
2022-11-12T01:40:40.069Z,6.14
2022-11-12T01:41:40.056Z,6.13
2022-11-12T01:42:40.041Z,6.17
2022-11-12T01:43:40.151Z,6.21
2022-11-12T01:44:40.012Z,6.06
2022-11-12T01:45:40.000Z,6.17
2022-11-12T01:46:39.985Z,6.14
2022-11-12T01:47:39.970Z,6.19
2022-11-12T01:48:39.951Z,6.11
2022-11-12T01:49:39.941Z,6.24
2022-11-12T01:50:39.924Z,6.30
2022-11-12T01:51:39.914Z,6.20
2022-11-12T01:52:39.900Z,6.17
2022-11-12T01:53:39.892Z,6.27
2022-11-12T01:54:39.870Z,6.19
2022-11-12T01:55:39.858Z,6.27
2022-11-12T01:56:42.509Z,6.25
2022-11-12T01:57:39.835Z,6.17
2022-11-12T01:58:39.812Z,6.16
2022-11-12T01:59:39.924Z,6.25
2022-11-12T02:00:39.784Z,6.16
2022-11-12T02:01:39.775Z,6.20
2022-11-12T02:02:39.757Z,6.13
2022-11-12T02:03:39.750Z,6.25
2022-11-12T02:04:39.731Z,6.19
2022-11-12T02:05:39.721Z,6.30
2022-11-12T02:06:39.827Z,6.21
2022-11-12T02:07:39.697Z,6.17
2022-11-12T02:08:39.679Z,6.30
2022-11-12T02:09:39.671Z,6.32
2022-11-12T02:10:39.652Z,6.27
2022-11-12T02:11:39.643Z,6.14
2022-11-12T02:12:39.626Z,6.24
2022-11-12T02:13:39.615Z,6.25
2022-11-12T02:14:39.594Z,6.21
2022-11-12T02:15:39.698Z,6.19
2022-11-12T02:16:39.567Z,6.20
2022-11-12T02:17:39.558Z,6.16
2022-11-12T02:18:39.544Z,6.10
2022-11-12T02:19:39.535Z,6.14
2022-11-12T02:20:39.523Z,6.08
2022-11-12T02:21:39.508Z,6.05
2022-11-12T02:22:39.490Z,6.16
2022-11-12T02:23:39.485Z,6.08
2022-11-12T02:24:39.458Z,6.14
2022-11-12T02:25:39.446Z,6.11
2022-11-12T02:26:39.431Z,5.99
2022-11-12T02:27:39.421Z,6.01
2022-11-12T02:28:39.406Z,6.06
2022-11-12T02:29:39.393Z,6.08
2022-11-12T02:30:39.376Z,6.10
2022-11-12T02:31:39.483Z,6.06
2022-11-12T02:32:39.352Z,6.10
2022-11-12T02:33:39.343Z,6.06
2022-11-12T02:34:39.324Z,6.05
2022-11-12T02:35:39.311Z,6.03
2022-11-12T02:36:39.301Z,6.02
2022-11-12T02:37:39.286Z,6.10
2022-11-12T02:38:39.266Z,5.99
2022-11-12T02:39:39.257Z,5.98
2022-11-12T02:40:39.243Z,5.90
2022-11-12T02:41:39.230Z,5.90
2022-11-12T02:42:39.210Z,5.88
2022-11-12T02:43:39.202Z,5.85
2022-11-12T02:44:39.181Z,5.87
2022-11-12T02:45:39.172Z,5.88
2022-11-12T02:46:39.155Z,5.87
2022-11-12T02:47:39.262Z,5.78
2022-11-12T02:48:39.145Z,5.90
2022-11-12T02:49:39.116Z,5.84
2022-11-12T02:50:39.103Z,5.80
2022-11-12T02:51:39.097Z,5.88
2022-11-12T02:52:39.076Z,5.92
2022-11-12T02:53:39.073Z,5.93
2022-11-12T02:54:39.047Z,5.95
2022-11-12T02:55:39.037Z,5.90
2022-11-12T02:56:39.017Z,5.87
2022-11-12T02:57:39.005Z,5.88
2022-11-12T02:58:38.994Z,5.78
2022-11-12T02:59:38.988Z,5.99
2022-11-12T03:00:39.025Z,5.87
2022-11-12T03:01:38.954Z,5.77
2022-11-12T03:02:38.936Z,5.73
2022-11-12T03:03:39.040Z,5.66
2022-11-12T03:04:38.905Z,5.73
2022-11-12T03:05:38.897Z,5.78
2022-11-12T03:06:38.939Z,5.77
2022-11-12T03:07:38.875Z,5.81
2022-11-12T03:08:38.855Z,5.83
2022-11-12T03:09:38.848Z,5.73
2022-11-12T03:10:38.827Z,5.77
2022-11-12T03:11:38.812Z,5.80
2022-11-12T03:12:38.802Z,5.80
2022-11-12T03:13:38.786Z,5.66
2022-11-12T03:14:38.770Z,5.70
2022-11-12T03:15:38.759Z,5.67
2022-11-12T03:16:38.740Z,5.83
2022-11-12T03:17:38.729Z,5.73
2022-11-12T03:18:38.717Z,5.85
2022-11-12T03:19:38.819Z,5.77
2022-11-12T03:20:38.687Z,5.85
2022-11-12T03:21:38.672Z,5.69
2022-11-12T03:22:38.662Z,5.75
2022-11-12T03:23:38.645Z,5.81
2022-11-12T03:24:38.636Z,5.70
2022-11-12T03:25:38.618Z,5.77
2022-11-12T03:26:38.609Z,5.74
2022-11-12T03:27:38.600Z,5.66
2022-11-12T03:28:38.582Z,5.74
2022-11-12T03:29:38.569Z,5.67
2022-11-12T03:30:38.559Z,5.67
2022-11-12T03:31:38.539Z,5.78
2022-11-12T03:32:38.527Z,5.74
2022-11-12T03:33:38.515Z,5.73
2022-11-12T03:34:38.500Z,5.67
2022-11-12T03:35:38.595Z,5.69
2022-11-12T03:36:38.471Z,5.81
2022-11-12T03:37:38.451Z,5.69
2022-11-12T03:38:38.444Z,5.75
2022-11-12T03:39:38.435Z,5.58
2022-11-12T03:40:38.414Z,5.62
2022-11-12T03:41:38.402Z,5.73
2022-11-12T03:42:38.391Z,5.59
2022-11-12T03:43:38.373Z,5.67
2022-11-12T03:44:38.354Z,5.67
2022-11-12T03:45:38.345Z,5.73
2022-11-12T03:46:43.049Z,5.66
2022-11-12T03:47:38.316Z,5.66
2022-11-12T03:48:38.302Z,5.80
2022-11-12T03:49:38.288Z,5.73
2022-11-12T03:50:38.275Z,5.70
2022-11-12T03:51:38.382Z,5.67
2022-11-12T03:52:38.250Z,5.59
2022-11-12T03:53:38.239Z,5.65
2022-11-12T03:54:38.218Z,5.66
2022-11-12T03:55:38.204Z,5.62
2022-11-12T03:56:38.192Z,5.69
2022-11-12T03:57:38.178Z,5.55
2022-11-12T03:58:38.167Z,5.55
2022-11-12T03:59:38.149Z,5.59
2022-11-12T04:00:38.137Z,5.66
2022-11-12T04:01:38.218Z,5.52
2022-11-12T04:02:38.105Z,5.55
2022-11-12T04:03:38.099Z,5.65
2022-11-12T04:04:38.078Z,5.69
2022-11-12T04:05:38.071Z,5.45
2022-11-12T04:06:38.133Z,5.37
2022-11-12T04:07:38.164Z,5.52
2022-11-12T04:08:38.177Z,5.42
2022-11-12T04:09:38.015Z,5.45
2022-11-12T04:10:37.993Z,5.60
2022-11-12T04:11:37.988Z,5.47
2022-11-12T04:12:37.966Z,5.41
2022-11-12T04:13:37.957Z,5.44
2022-11-12T04:14:37.942Z,5.40
2022-11-12T04:15:37.931Z,5.45
2022-11-12T04:16:37.917Z,5.35
2022-11-12T04:17:37.907Z,5.41
2022-11-12T04:18:37.889Z,5.42
2022-11-12T04:19:37.872Z,5.37
2022-11-12T04:20:37.857Z,5.32
2022-11-12T04:21:37.847Z,5.58
2022-11-12T04:22:37.829Z,5.52
2022-11-12T04:23:37.936Z,5.47
2022-11-12T04:24:37.800Z,5.42
2022-11-12T04:25:37.794Z,5.41
2022-11-12T04:26:37.778Z,5.40
2022-11-12T04:27:37.767Z,5.38
2022-11-12T04:28:37.750Z,5.48
2022-11-12T04:29:37.798Z,5.47
2022-11-12T04:30:37.724Z,5.42
2022-11-12T04:31:37.715Z,5.47
2022-11-12T04:32:37.691Z,5.37
2022-11-12T04:33:37.682Z,5.40
2022-11-12T04:34:37.705Z,5.45
2022-11-12T04:35:37.657Z,5.38
2022-11-12T04:36:37.640Z,5.40
2022-11-12T04:37:37.632Z,5.44
2022-11-12T04:38:37.612Z,5.41
2022-11-12T04:39:37.717Z,5.40
2022-11-12T04:40:37.587Z,5.30
2022-11-12T04:41:37.575Z,5.33
2022-11-12T04:42:37.554Z,5.35
2022-11-12T04:43:37.545Z,5.44
2022-11-12T04:44:37.524Z,5.33
2022-11-12T04:45:37.516Z,5.38
2022-11-12T04:46:37.502Z,5.37
2022-11-12T04:47:37.495Z,5.38
2022-11-12T04:48:37.473Z,5.33
2022-11-12T04:49:37.464Z,5.29
2022-11-12T04:50:37.450Z,5.33
2022-11-12T04:51:37.438Z,5.40
2022-11-12T04:52:37.418Z,5.26
2022-11-12T04:53:37.411Z,5.26
2022-11-12T04:54:37.389Z,5.29
2022-11-12T04:55:37.509Z,5.30
2022-11-12T04:56:37.361Z,5.41
2022-11-12T04:57:37.354Z,5.30
2022-11-12T04:58:37.334Z,5.17
2022-11-12T04:59:37.323Z,5.20
2022-11-12T05:00:37.305Z,5.19
2022-11-12T05:01:37.380Z,5.09
2022-11-12T05:02:37.284Z,5.06
2022-11-12T05:03:37.274Z,5.08
2022-11-12T05:04:37.256Z,5.19
2022-11-12T05:05:37.246Z,5.20
2022-11-12T05:06:37.309Z,5.04
2022-11-12T05:07:37.216Z,5.22
2022-11-12T05:08:37.203Z,5.22
2022-11-12T05:09:37.191Z,5.05
2022-11-12T05:10:37.172Z,5.15
2022-11-12T05:11:37.275Z,5.12
2022-11-12T05:12:37.141Z,5.06
2022-11-12T05:13:37.133Z,5.02
2022-11-12T05:14:37.118Z,4.99
2022-11-12T05:15:37.107Z,4.91
2022-11-12T05:16:37.090Z,5.02
2022-11-12T05:17:37.081Z,4.93
2022-11-12T05:18:37.064Z,5.02
2022-11-12T05:19:37.054Z,4.94
2022-11-12T05:20:37.037Z,4.93
2022-11-12T05:21:43.210Z,4.97
2022-11-12T05:22:45.736Z,5.01
2022-11-12T05:23:38.015Z,4.99
2022-11-12T05:24:42.121Z,4.93
2022-11-12T05:25:36.972Z,4.86
2022-11-12T05:26:36.953Z,4.96
2022-11-12T05:27:37.057Z,4.91
2022-11-12T05:28:36.925Z,4.88
2022-11-12T05:29:36.917Z,4.96
2022-11-12T05:30:36.903Z,4.93
2022-11-12T05:31:36.891Z,4.86
2022-11-12T05:32:36.879Z,4.94
2022-11-12T05:33:36.866Z,4.84
2022-11-12T05:34:36.851Z,4.88
2022-11-12T05:35:36.838Z,4.96
2022-11-12T05:36:36.818Z,4.79
2022-11-12T05:37:36.810Z,4.90
2022-11-12T05:38:36.792Z,4.74
2022-11-12T05:39:36.781Z,4.80
2022-11-12T05:40:36.765Z,4.77
2022-11-12T05:41:58.257Z,4.77
2022-11-12T05:42:37.767Z,4.75
2022-11-12T05:43:36.854Z,4.67
2022-11-12T05:44:36.732Z,4.79
2022-11-12T05:45:36.708Z,4.65
2022-11-12T05:46:36.688Z,4.77
2022-11-12T05:47:36.678Z,4.74
2022-11-12T05:48:36.661Z,4.77
2022-11-12T05:49:36.650Z,4.68
2022-11-12T05:50:51.248Z,4.75
2022-11-12T05:51:37.846Z,4.75
2022-11-12T05:52:36.611Z,4.93
2022-11-12T05:53:36.602Z,4.79
2022-11-12T05:54:36.583Z,4.84
2022-11-12T05:55:37.253Z,4.72
2022-11-12T05:56:36.557Z,4.88
2022-11-12T05:57:36.546Z,4.86
2022-11-12T05:58:36.526Z,4.93
2022-11-12T05:59:36.631Z,4.83
2022-11-12T06:00:36.501Z,4.75
2022-11-12T06:01:36.490Z,4.83
2022-11-12T06:02:36.552Z,4.88
2022-11-12T06:03:36.461Z,4.86
2022-11-12T06:04:36.446Z,4.83
2022-11-12T06:05:36.435Z,4.91
2022-11-12T06:06:36.485Z,4.83
2022-11-12T06:07:36.417Z,4.88
2022-11-12T06:08:36.403Z,4.75
2022-11-12T06:09:36.388Z,4.94
2022-11-12T06:10:36.373Z,4.84
2022-11-12T06:11:36.363Z,4.80
2022-11-12T06:12:36.346Z,4.96
2022-11-12T06:13:36.335Z,4.93
2022-11-12T06:14:36.314Z,4.90
2022-11-12T06:15:39.245Z,4.90
2022-11-12T06:16:36.287Z,4.86
2022-11-12T06:17:36.282Z,4.94
2022-11-12T06:18:36.266Z,4.93
2022-11-12T06:19:36.257Z,4.83
2022-11-12T06:20:36.242Z,4.86
2022-11-12T06:21:36.229Z,4.79
2022-11-12T06:22:36.208Z,4.87
2022-11-12T06:23:36.199Z,4.83
2022-11-12T06:24:36.180Z,4.80
2022-11-12T06:25:36.170Z,4.93
2022-11-12T06:26:36.156Z,4.93
2022-11-12T06:27:36.149Z,4.90
2022-11-12T06:28:36.160Z,4.90
2022-11-12T06:29:36.125Z,4.91
2022-11-12T06:30:36.106Z,4.91
2022-11-12T06:31:36.209Z,4.87
2022-11-12T06:32:36.079Z,4.91
2022-11-12T06:33:36.072Z,4.86
2022-11-12T06:34:36.053Z,4.84
2022-11-12T06:35:39.089Z,4.86
2022-11-12T06:36:37.049Z,4.93
2022-11-12T06:37:36.017Z,4.77
2022-11-12T06:38:35.999Z,4.83
2022-11-12T06:39:35.987Z,4.87
2022-11-12T06:40:35.971Z,4.72
2022-11-12T06:41:35.964Z,4.87
2022-11-12T06:42:35.943Z,4.87
2022-11-12T06:43:35.933Z,4.91
2022-11-12T06:44:35.923Z,4.96
2022-11-12T06:45:35.908Z,4.94
2022-11-12T06:46:35.898Z,4.90
2022-11-12T06:47:35.999Z,4.99
2022-11-12T06:48:35.866Z,4.80
2022-11-12T06:49:35.859Z,4.77
2022-11-12T06:50:35.836Z,4.97
2022-11-12T06:51:35.827Z,4.87
2022-11-12T06:52:35.809Z,4.91
2022-11-12T06:53:35.800Z,4.86
2022-11-12T06:54:35.795Z,4.97
2022-11-12T06:55:35.777Z,4.99
2022-11-12T06:56:35.760Z,4.97
2022-11-12T06:57:35.750Z,5.12
2022-11-12T06:58:35.736Z,5.08
2022-11-12T06:59:35.723Z,5.04
2022-11-12T07:00:35.707Z,5.02
2022-11-12T07:01:35.725Z,5.02
2022-11-12T07:02:35.677Z,4.99
2022-11-12T07:03:35.785Z,4.93
2022-11-12T07:04:35.649Z,4.97
2022-11-12T07:05:35.636Z,5.09
2022-11-12T07:06:35.716Z,5.06
2022-11-12T07:07:35.612Z,5.09
2022-11-12T07:08:35.594Z,5.12
2022-11-12T07:09:35.585Z,5.14
2022-11-12T07:10:35.576Z,5.22
2022-11-12T07:11:35.562Z,5.12
2022-11-12T07:12:35.543Z,5.08
2022-11-12T07:13:35.535Z,5.17
2022-11-12T07:14:35.520Z,5.19
2022-11-12T07:15:35.504Z,5.20
2022-11-12T07:16:35.488Z,5.08
2022-11-12T07:17:35.480Z,5.17
2022-11-12T07:18:35.455Z,5.19
2022-11-12T07:19:35.576Z,5.19
2022-11-12T07:20:35.429Z,5.27
2022-11-12T07:21:35.420Z,5.29
2022-11-12T07:22:35.406Z,5.02
2022-11-12T07:23:35.394Z,5.22
2022-11-12T07:24:35.379Z,5.17
2022-11-12T07:25:35.369Z,5.20
2022-11-12T07:26:35.346Z,5.15
2022-11-12T07:27:35.339Z,5.22
2022-11-12T07:28:35.320Z,5.26
2022-11-12T07:29:47.433Z,5.32
2022-11-12T07:30:36.311Z,5.33
2022-11-12T07:31:35.281Z,5.44
2022-11-12T07:32:38.657Z,5.41
2022-11-12T07:33:36.269Z,5.44
2022-11-12T07:34:35.241Z,5.37
2022-11-12T07:35:35.347Z,5.29
2022-11-12T07:36:35.212Z,5.38
2022-11-12T07:37:35.201Z,5.32
2022-11-12T07:38:35.184Z,5.45
2022-11-12T07:39:35.204Z,5.37
2022-11-12T07:40:35.158Z,5.40
2022-11-12T07:41:35.149Z,5.30
2022-11-12T07:42:35.130Z,5.32
2022-11-12T07:43:35.123Z,5.29
2022-11-12T07:44:35.102Z,5.37
2022-11-12T07:45:35.088Z,5.35
2022-11-12T07:46:35.071Z,5.33
2022-11-12T07:47:35.059Z,5.40
2022-11-12T07:48:35.045Z,5.40
2022-11-12T07:49:35.034Z,5.37
2022-11-12T07:50:35.020Z,5.27
2022-11-12T07:51:35.124Z,5.24
2022-11-12T07:52:34.993Z,5.35
2022-11-12T07:53:34.984Z,5.42
2022-11-12T07:54:34.967Z,5.29
2022-11-12T07:55:34.953Z,5.23
2022-11-12T07:56:34.939Z,5.17
2022-11-12T07:57:34.923Z,5.32
2022-11-12T07:58:34.907Z,5.26
2022-11-12T07:59:34.897Z,5.24
2022-11-12T08:00:34.879Z,5.26
2022-11-12T08:01:34.940Z,5.27
2022-11-12T08:02:34.852Z,5.32
2022-11-12T08:03:34.837Z,5.37
2022-11-12T08:04:34.829Z,5.42
2022-11-12T08:05:34.807Z,5.37
2022-11-12T08:06:34.871Z,5.45
2022-11-12T08:07:34.973Z,5.38
2022-11-12T08:08:34.775Z,5.49
2022-11-12T08:09:34.756Z,5.56
2022-11-12T08:10:34.744Z,5.49
2022-11-12T08:11:34.732Z,5.44
2022-11-12T08:12:34.716Z,5.40
2022-11-12T08:13:34.702Z,5.56
2022-11-12T08:14:34.688Z,5.44
2022-11-12T08:15:34.668Z,5.51
2022-11-12T08:16:34.656Z,5.45
2022-11-12T08:17:34.644Z,5.51
2022-11-12T08:18:34.632Z,5.47
2022-11-12T08:19:34.613Z,5.45
2022-11-12T08:20:34.602Z,5.40
2022-11-12T08:21:34.588Z,5.49
2022-11-12T08:22:34.580Z,5.40
2022-11-12T08:23:34.678Z,5.44
2022-11-12T08:24:34.559Z,5.37
2022-11-12T08:25:34.537Z,5.35
2022-11-12T08:26:34.519Z,5.47
2022-11-12T08:27:34.503Z,5.38
2022-11-12T08:28:34.491Z,5.60
2022-11-12T08:29:34.475Z,5.58
2022-11-12T08:30:34.471Z,5.65
2022-11-12T08:31:34.450Z,5.73
2022-11-12T08:32:34.442Z,5.80
2022-11-12T08:33:34.426Z,5.74
2022-11-12T08:34:34.418Z,5.78
2022-11-12T08:35:34.396Z,5.84
2022-11-12T08:36:34.388Z,5.80
2022-11-12T08:37:34.371Z,5.87
2022-11-12T08:38:34.355Z,5.74
2022-11-12T08:39:34.455Z,5.88
2022-11-12T08:40:34.330Z,5.83
2022-11-12T08:41:34.310Z,5.81
2022-11-12T08:42:34.302Z,5.87
2022-11-12T08:43:34.284Z,5.90
2022-11-12T08:44:34.274Z,5.85
2022-11-12T08:45:34.256Z,5.66
2022-11-12T08:46:34.250Z,5.59
2022-11-12T08:47:34.231Z,5.45
2022-11-12T08:48:34.221Z,5.55
2022-11-12T08:49:34.205Z,5.59
2022-11-12T08:50:34.208Z,5.59
2022-11-12T08:51:34.177Z,5.66
2022-11-12T08:52:34.168Z,5.78
2022-11-12T08:53:34.151Z,5.77
2022-11-12T08:54:34.132Z,5.90
2022-11-12T08:55:34.234Z,6.02
2022-11-12T08:56:34.120Z,5.99
2022-11-12T08:57:34.089Z,6.08
2022-11-12T08:58:34.091Z,6.16
2022-11-12T08:59:34.068Z,6.30
2022-11-12T09:00:34.058Z,6.38
2022-11-12T09:01:34.077Z,6.38
2022-11-12T09:02:34.025Z,6.39
2022-11-12T09:03:34.011Z,6.35
2022-11-12T09:04:34.000Z,6.13
2022-11-12T09:05:33.983Z,6.02
2022-11-12T09:06:34.143Z,5.98
2022-11-12T09:07:49.231Z,5.88
2022-11-12T09:08:35.010Z,5.77
2022-11-12T09:09:33.928Z,5.92
2022-11-12T09:10:33.921Z,5.74
2022-11-12T09:11:34.019Z,5.88
2022-11-12T09:12:33.902Z,6.08
2022-11-12T09:13:33.945Z,6.01
2022-11-12T09:14:33.867Z,6.13
2022-11-12T09:15:38.369Z,6.19
2022-11-12T09:16:33.867Z,6.33
2022-11-12T09:17:33.823Z,6.32
2022-11-12T09:18:33.810Z,6.45
2022-11-12T09:19:34.939Z,6.61
2022-11-12T09:20:33.780Z,6.55
2022-11-12T09:21:33.766Z,6.73
2022-11-12T09:22:33.754Z,6.72
2022-11-12T09:23:33.738Z,6.71
2022-11-12T09:24:33.730Z,6.75
2022-11-12T09:25:33.710Z,6.75
2022-11-12T09:26:33.705Z,6.75
2022-11-12T09:27:33.839Z,6.75
2022-11-12T09:28:33.678Z,6.82
2022-11-12T09:29:33.663Z,6.76
2022-11-12T09:30:33.652Z,6.83
2022-11-12T09:31:33.629Z,6.89
2022-11-12T09:32:33.616Z,6.97
2022-11-12T09:33:33.602Z,6.99
2022-11-12T09:34:33.595Z,7.07
2022-11-12T09:35:33.578Z,7.08
2022-11-12T09:36:38.592Z,7.00
2022-11-12T09:37:34.576Z,6.93
2022-11-12T09:38:33.544Z,6.99
2022-11-12T09:39:33.523Z,6.89
2022-11-12T09:40:33.519Z,6.78
2022-11-12T09:41:33.496Z,6.57
2022-11-12T09:42:33.482Z,6.39
2022-11-12T09:43:33.578Z,6.42
2022-11-12T09:44:36.802Z,6.36
2022-11-12T09:45:33.438Z,6.21
2022-11-12T09:46:33.427Z,6.20
2022-11-12T09:47:33.418Z,6.20
2022-11-12T09:48:33.403Z,6.24
2022-11-12T09:49:33.383Z,6.38
2022-11-12T09:50:33.376Z,6.25
2022-11-12T09:51:33.360Z,6.39
2022-11-12T09:52:33.348Z,6.32
2022-11-12T09:53:33.332Z,6.33
2022-11-12T09:54:33.325Z,6.21
2022-11-12T09:55:33.305Z,6.24
2022-11-12T09:56:33.293Z,6.33
2022-11-12T09:57:33.283Z,6.43
2022-11-12T09:58:33.263Z,6.30
2022-11-12T09:59:33.366Z,6.14
2022-11-12T10:00:33.235Z,6.20
2022-11-12T10:01:33.270Z,6.25
2022-11-12T10:02:33.213Z,6.33
2022-11-12T10:03:33.196Z,6.42
2022-11-12T10:04:33.190Z,6.54
2022-11-12T10:05:33.168Z,6.48
2022-11-12T10:06:33.156Z,6.54
2022-11-12T10:07:33.140Z,6.75
2022-11-12T10:08:33.125Z,6.76
2022-11-12T10:09:33.111Z,6.81
2022-11-12T10:10:33.104Z,6.91
2022-11-12T10:11:33.086Z,7.00
2022-11-12T10:12:33.076Z,7.08
2022-11-12T10:13:33.058Z,7.12
2022-11-12T10:14:33.049Z,7.15
2022-11-12T10:15:33.147Z,6.87
2022-11-12T10:16:33.022Z,6.94
2022-11-12T10:17:33.006Z,6.89
2022-11-12T10:18:32.989Z,6.97
2022-11-12T10:19:32.974Z,7.09
2022-11-12T10:20:38.439Z,7.23
2022-11-12T10:21:32.946Z,7.21
2022-11-12T10:22:32.936Z,7.23
2022-11-12T10:23:32.918Z,7.36
2022-11-12T10:24:32.913Z,7.34
2022-11-12T10:25:32.895Z,7.55
2022-11-12T10:26:32.883Z,7.74
2022-11-12T10:27:32.872Z,8.03
2022-11-12T10:28:38.062Z,8.13
2022-11-12T10:29:32.837Z,7.95
2022-11-12T10:30:32.828Z,7.91
2022-11-12T10:31:32.926Z,7.71
2022-11-12T10:32:32.803Z,7.73
2022-11-12T10:33:32.783Z,7.55
2022-11-12T10:34:32.773Z,7.60
2022-11-12T10:35:32.755Z,7.47
2022-11-12T10:36:32.746Z,7.50
2022-11-12T10:37:32.730Z,7.44
2022-11-12T10:38:32.722Z,7.48
2022-11-12T10:39:32.709Z,7.45
2022-11-12T10:40:32.696Z,7.76
2022-11-12T10:41:32.681Z,7.82
2022-11-12T10:42:32.670Z,8.06
2022-11-12T10:43:32.653Z,7.86
2022-11-12T10:44:32.645Z,8.06
2022-11-12T10:45:32.626Z,8.00
2022-11-12T10:46:32.610Z,7.88
2022-11-12T10:47:32.713Z,7.77
2022-11-12T10:48:33.031Z,7.77
2022-11-12T10:49:32.568Z,7.54
2022-11-12T10:50:32.557Z,7.42
2022-11-12T10:51:32.742Z,7.33
2022-11-12T10:52:32.530Z,7.26
2022-11-12T10:53:32.515Z,7.30
2022-11-12T10:54:32.506Z,7.24
2022-11-12T10:55:32.492Z,7.37
2022-11-12T10:56:32.481Z,7.42
2022-11-12T10:57:32.464Z,7.55
2022-11-12T10:58:32.459Z,7.63
2022-11-12T10:59:32.437Z,7.76
2022-11-12T11:00:32.426Z,7.84
2022-11-12T11:01:35.661Z,7.89
2022-11-12T11:02:32.394Z,7.96
2022-11-12T11:03:32.500Z,8.13
2022-11-12T11:04:32.366Z,8.32
2022-11-12T11:05:32.351Z,8.43
2022-11-12T11:06:32.346Z,8.76
2022-11-12T11:07:32.331Z,8.78
2022-11-12T11:08:35.971Z,9.26
2022-11-12T11:09:32.301Z,9.30
2022-11-12T11:10:32.292Z,9.41
2022-11-12T11:11:32.275Z,9.59
2022-11-12T11:12:32.261Z,9.45
2022-11-12T11:13:32.245Z,9.42
2022-11-12T11:14:32.232Z,9.31
2022-11-12T11:15:32.215Z,9.38
2022-11-12T11:16:32.204Z,9.60
2022-11-12T11:17:32.187Z,9.85
2022-11-12T11:18:32.176Z,10.26
2022-11-12T11:19:32.277Z,10.63
2022-11-12T11:20:32.149Z,10.99
2022-11-12T11:21:32.130Z,11.38
2022-11-12T11:22:32.129Z,11.87
2022-11-12T11:23:32.110Z,12.29
2022-11-12T11:24:32.099Z,12.54
2022-11-12T11:25:32.081Z,12.67
2022-11-12T11:26:32.072Z,12.94
2022-11-12T11:27:32.059Z,13.39
2022-11-12T11:28:32.039Z,13.48
2022-11-12T11:29:32.021Z,13.86
2022-11-12T11:30:32.018Z,14.23
2022-11-12T11:31:31.998Z,14.02
2022-11-12T11:32:37.042Z,14.11
2022-11-12T11:33:31.973Z,14.53
2022-11-12T11:34:31.961Z,14.59
2022-11-12T11:35:32.066Z,14.98
2022-11-12T11:36:31.935Z,15.03
2022-11-12T11:37:31.920Z,15.09
2022-11-12T11:38:31.907Z,15.38
2022-11-12T11:39:31.891Z,15.71
2022-11-12T11:40:31.881Z,15.66
2022-11-12T11:41:31.869Z,15.74
2022-11-12T11:42:31.861Z,16.01
2022-11-12T11:43:31.833Z,15.93
2022-11-12T11:44:31.960Z,15.80
2022-11-12T11:45:31.836Z,15.92
2022-11-12T11:46:31.805Z,16.06
2022-11-12T11:47:44.166Z,16.48
2022-11-12T11:48:32.790Z,16.72
2022-11-12T11:49:31.755Z,17.15
2022-11-12T11:50:31.744Z,17.25
2022-11-12T11:51:31.844Z,17.32
2022-11-12T11:52:31.720Z,17.28
2022-11-12T11:53:31.698Z,17.07
2022-11-12T11:54:31.690Z,17.00
2022-11-12T11:55:31.673Z,16.69
2022-11-12T11:56:31.714Z,16.73
2022-11-12T11:57:31.645Z,16.62
2022-11-12T11:58:31.630Z,16.23
2022-11-12T11:59:31.614Z,15.70
2022-11-12T12:00:31.602Z,15.46
2022-11-12T12:01:31.589Z,15.13
2022-11-12T12:02:31.576Z,15.33
2022-11-12T12:03:32.988Z,15.55
2022-11-12T12:04:31.547Z,15.49
2022-11-12T12:05:31.546Z,15.66
2022-11-12T12:06:31.527Z,15.55
2022-11-12T12:07:31.626Z,15.28
2022-11-12T12:08:31.499Z,15.18
2022-11-12T12:09:31.480Z,15.25
2022-11-12T12:10:53.312Z,14.94
2022-11-12T12:11:32.496Z,14.98
2022-11-12T12:12:31.434Z,14.90
2022-11-12T12:13:31.425Z,14.85
2022-11-12T12:14:31.409Z,14.82
2022-11-12T12:15:31.396Z,14.71
2022-11-12T12:16:31.380Z,14.64
2022-11-12T12:17:32.141Z,14.54
2022-11-12T12:18:31.356Z,14.31
2022-11-12T12:19:31.347Z,14.30
2022-11-12T12:20:31.328Z,14.19
2022-11-12T12:21:31.319Z,14.20
2022-11-12T12:22:31.301Z,14.27
2022-11-12T12:23:31.412Z,14.42
2022-11-12T12:24:31.274Z,14.36
2022-11-12T12:25:31.266Z,14.46
2022-11-12T12:26:31.241Z,14.45
2022-11-12T12:27:31.234Z,14.64
2022-11-12T12:28:31.217Z,14.59
2022-11-12T12:29:31.205Z,14.57
2022-11-12T12:30:31.186Z,14.54
2022-11-12T12:31:31.205Z,14.64
2022-11-12T12:32:31.167Z,14.61
2022-11-12T12:33:31.153Z,14.56
2022-11-12T12:34:31.133Z,14.39
2022-11-12T12:35:31.123Z,14.21
2022-11-12T12:36:31.106Z,14.12
2022-11-12T12:37:31.096Z,14.31
2022-11-12T12:38:31.078Z,14.27
2022-11-12T12:39:31.181Z,14.34
2022-11-12T12:40:31.057Z,14.54
2022-11-12T12:41:31.045Z,14.54
2022-11-12T12:42:31.028Z,14.64
2022-11-12T12:43:31.017Z,14.71
2022-11-12T12:44:30.999Z,14.61
2022-11-12T12:45:35.777Z,14.75
2022-11-12T12:46:30.975Z,14.83
2022-11-12T12:47:30.962Z,14.75
2022-11-12T12:48:30.949Z,14.82
2022-11-12T12:49:30.938Z,14.90
2022-11-12T12:50:30.917Z,15.03
2022-11-12T12:51:30.909Z,15.15
2022-11-12T12:52:30.891Z,15.28
2022-11-12T12:53:30.881Z,15.31
2022-11-12T12:54:30.864Z,15.53
2022-11-12T12:55:30.968Z,15.52
2022-11-12T12:56:30.839Z,15.56
2022-11-12T12:57:30.827Z,15.51
2022-11-12T12:58:30.810Z,15.38
2022-11-12T12:59:30.801Z,15.28
2022-11-12T13:00:30.835Z,15.27
2022-11-12T13:01:30.772Z,15.12
2022-11-12T13:02:30.753Z,14.97
2022-11-12T13:03:30.742Z,15.00
2022-11-12T13:04:30.728Z,15.01
2022-11-12T13:05:30.719Z,15.01
2022-11-12T13:06:30.696Z,14.93
2022-11-12T13:07:30.759Z,14.87
2022-11-12T13:08:30.759Z,14.87
2022-11-12T13:09:30.658Z,14.79
2022-11-12T13:10:30.647Z,14.63
2022-11-12T13:11:30.783Z,14.71
2022-11-12T13:12:30.619Z,14.72
2022-11-12T13:13:32.433Z,14.67
2022-11-12T13:14:30.608Z,14.75